"WATCHING THE WEATHER TO PROTECT LIFE AND PROPERTY"


Aviation
Satellite (InfraRed)


KFLL 271453Z 12016KT 10SM FEW027 26/18 A3024 RMK AO2 SLP239 T02610183 51019
KMCO 271453Z 09009KT 10SM FEW040 BKN070 23/17 A3027 RMK AO2 SLP249 T02330172 53014
KMIA 271453Z 10016KT 10SM BKN027 27/18 A3024 RMK AO2 SLP241 T02670183 51018
KTPA 271453Z 12008G17KT 10SM CLR 24/17 A3023 RMK AO2 SLP237 T02390172 51007
MDPP 271500Z 06008KT 9999 BKN016 25/24 Q1021 RERA
MDSD 271500Z 07008KT 9999 BKN020 29/20 Q1020
MKJS 271500Z 05009KT 9999 SCT022 28/23 Q1019
MTPP 271500Z 09006KT 9000 FEW022 30/18 Q1018 A3007
MUHA 271455Z 10012KT 070V130 9000 FEW030 26/17 Q1022
MYNN 271500Z 07010KT 9999 SCT018 27/22 A3026 RMK PK WND 17KT
TAPA 271500Z 08013KT 9999 FEW024 BKN035 26/21 Q1019 NOSIG
TFFF 271530Z AUTO 11021KT 9999 BKN030/// BKN035/// BKN044/// ///TCU 29/21 Q1017 TEMPO 09015G25KT 4000 SHRA
TFFR 271530Z AUTO 10012G24KT 6000 SCT027/// BKN034/// BKN046/// ///CB 26/23 Q1018 TEMPO 4000 SHRA
TIST 271453Z 08013G22KT 10SM SCT030 29/21 A3011 RMK AO2 SLP197 T02940206 51013
TISX 271453Z 08015G23KT 10SM FEW030 SCT037 27/20 A3011 RMK AO2 SLP195 T02720200 51013
TJSJ 271456Z 08014KT 10SM FEW028 SCT037 SCT065 28/22 A3013 RMK AO2 SLP201 T02830222 51013
TKPK 271500Z 08017KT 9999 FEW023 29/20 Q1019
TNCA 271500Z 07017KT 9999N FEW019 30/23 Q1016 A3001 NOSIG
TNCB 271455Z 08017KT 9999 FEW023 29/22 Q1016
TNCC 271500Z 07011KT 9999 FEW020 30/23 Q1017 NOSIG
TNCE 271455Z AUTO 06016KT 030V100 //// // ///////// 28/21 Q1019 RE//
TNCM 271500Z 06014KT 040V100 9999 BKN020 28/21 Q1019 A3011 NOSIG
TQPF 271500Z 08019KT 9999 BKN020 28/18 Q1020
TUPJ 271500Z 09011KT 9999 SCT018 30/21 Q1020 RMK A3014